Time;durP1;ratioP1;P1;durP2;ratioP2;P2;SDS_P1;SDS_P2;PMS_P1;PMS_P2;Temp;Humidity;BMP_temperature;BMP_pressure;BME280_temperature;BME280_humidity;BME280_pressure;Samples;Min_cycle;Max_cycle;Signal;HPM_P1;HPM_P2
2022/03/21 00:00:08;;;;;;;18.60;11.73;;;;;;;-0.11;46.77;103675.88;2097311;28;20695;-67
2022/03/21 00:01:17;;;;;;;19.10;13.02;;;;;;;0.06;46.95;103695.34;2097541;28;20559;-67
2022/03/21 00:02:18;;;;;;;16.65;10.90;;;;;;;0.06;46.33;103684.44;2097142;28;20371;-67
2022/03/21 00:03:21;;;;;;;16.23;10.93;;;;;;;0.06;46.44;103684.44;2097475;28;20323;-67
2022/03/21 00:04:25;;;;;;;15.43;10.38;;;;;;;-0.06;46.38;103664.09;2096898;28;20613;-67
2022/03/21 00:05:25;;;;;;;15.95;11.63;;;;;;;-0.05;46.65;103657.59;2097561;28;20178;-67
2022/03/21 00:06:26;;;;;;;16.00;12.10;;;;;;;0.09;46.49;103675.69;2097281;28;20210;-67
2022/03/21 00:07:26;;;;;;;18.20;12.67;;;;;;;0.10;46.49;103676.47;2097487;28;20188;-67
2022/03/21 00:08:28;;;;;;;20.67;14.57;;;;;;;0.17;46.63;103680.50;2097369;28;20191;-67
2022/03/21 00:09:28;;;;;;;20.05;14.05;;;;;;;0.15;46.30;103677.25;2097292;28;20187;-67
2022/03/21 00:10:36;;;;;;;20.60;13.93;;;;;;;0.15;46.02;103677.25;2096607;28;20256;-67
2022/03/21 00:11:37;;;;;;;27.05;16.80;;;;;;;0.16;46.77;103667.97;2096923;28;20194;-67
2022/03/21 00:12:39;;;;;;;27.10;16.93;;;;;;;-0.11;46.87;103623.25;2096868;28;20670;-67
2022/03/21 00:13:40;;;;;;;23.65;16.02;;;;;;;0.02;46.61;103650.66;2098378;28;20351;-67
2022/03/21 00:14:44;;;;;;;23.40;15.67;;;;;;;0.03;46.61;103665.94;2098715;28;20618;-67
2022/03/21 00:15:46;;;;;;;26.10;18.55;;;;;;;-0.01;47.01;103667.59;2098719;28;20573;-67
2022/03/21 00:16:47;;;;;;;27.95;19.38;;;;;;;-0.38;47.46;103604.75;2098938;28;20568;-67
2022/03/21 00:17:47;;;;;;;32.93;21.70;;;;;;;-0.68;47.38;103564.16;2098829;28;20181;-67
2022/03/21 00:18:48;;;;;;;33.00;22.53;;;;;;;-0.10;47.29;103657.63;2098966;28;20260;-67
2022/03/21 00:19:48;;;;;;;37.33;23.73;;;;;;;-0.16;47.61;103658.75;2098101;28;20729;-67
2022/03/21 00:20:50;;;;;;;21.17;13.37;;;;;;;-0.25;47.20;103657.78;2098096;28;20257;-67
2022/03/21 00:21:51;;;;;;;20.15;13.05;;;;;;;-0.75;47.83;103650.00;2098713;28;20175;-67
2022/03/21 00:22:53;;;;;;;21.30;13.07;;;;;;;-0.43;47.74;103677.53;2098633;28;20182;-67
2022/03/21 00:23:53;;;;;;;22.65;12.73;;;;;;;-0.56;47.74;103653.69;2098287;28;20278;-67
2022/03/21 00:24:55;;;;;;;20.40;12.93;;;;;;;-0.56;47.97;103662.66;2098887;28;20184;-67
2022/03/21 00:25:55;;;;;;;18.27;12.30;;;;;;;-0.58;47.97;103660.50;2097913;28;20642;-67
2022/03/21 00:26:56;;;;;;;19.07;12.53;;;;;;;-0.66;48.22;103665.44;2098391;28;20181;-67
2022/03/21 00:27:58;;;;;;;19.50;13.00;;;;;;;-0.58;48.24;103666.75;2098008;28;20195;-67
2022/03/21 00:28:58;;;;;;;19.05;13.10;;;;;;;-0.57;48.34;103660.19;2098397;28;20172;-67
2022/03/21 00:29:59;;;;;;;15.60;11.57;;;;;;;-0.58;48.31;103660.50;2098647;28;20212;-67
2022/03/21 00:30:59;;;;;;;18.90;12.37;;;;;;;-0.62;48.36;103666.50;2098888;28;20212;-67
2022/03/21 00:32:05;;;;;;;18.03;12.13;;;;;;;-0.61;48.43;103653.72;2098701;28;20175;-67
2022/03/21 00:33:06;;;;;;;16.98;10.57;;;;;;;-0.60;48.16;103656.13;2098628;28;20221;-67
2022/03/21 00:34:07;;;;;;;14.97;10.50;;;;;;;-0.63;48.45;103657.81;2098339;28;20187;-67
2022/03/21 00:35:12;;;;;;;17.10;11.23;;;;;;;-0.63;48.43;103655.88;2098935;28;20171;-67
2022/03/21 00:36:13;;;;;;;15.18;10.25;;;;;;;-1.19;48.26;103570.25;2098905;28;20399;-67
2022/03/21 00:37:13;;;;;;;14.53;10.13;;;;;;;-0.72;48.58;103652.13;2098690;28;20205;-67
2022/03/21 00:38:15;;;;;;;14.00;10.00;;;;;;;-0.76;48.64;103646.44;2098765;28;20184;-67
2022/03/21 00:39:16;;;;;;;16.67;10.27;;;;;;;-1.58;48.73;103548.47;2098816;28;20172;-67
2022/03/21 00:40:18;;;;;;;14.73;10.03;;;;;;;-0.89;49.35;103653.66;2098628;28;20193;-67
2022/03/21 00:41:18;;;;;;;16.75;11.13;;;;;;;-0.86;49.07;103651.16;2098783;28;20645;-67
2022/03/21 00:42:20;;;;;;;13.57;9.67;;;;;;;-0.93;49.69;103654.19;2098421;28;20605;-67
2022/03/21 00:43:22;;;;;;;14.57;10.38;;;;;;;-1.07;49.47;103622.47;2098083;28;20191;-67
2022/03/21 00:44:23;;;;;;;20.92;11.18;;;;;;;-0.88;49.43;103645.19;2097881;28;20688;-67
2022/03/21 00:45:24;;;;;;;17.93;10.50;;;;;;;-0.88;48.98;103646.00;2098764;28;20613;-67
2022/03/21 00:46:25;;;;;;;16.48;10.27;;;;;;;-0.87;48.98;103641.38;2098471;28;20199;-67
2022/03/21 00:47:26;;;;;;;14.75;10.38;;;;;;;-0.91;49.47;103648.47;2098717;28;20248;-67
2022/03/21 00:48:28;;;;;;;15.73;9.73;;;;;;;-0.86;49.06;103634.84;2098665;28;20180;-67
2022/03/21 00:49:29;;;;;;;16.80;10.68;;;;;;;-1.45;49.37;103548.94;2098686;28;20207;-67
2022/03/21 00:50:30;;;;;;;16.10;10.90;;;;;;;-0.87;49.02;103642.19;2098670;28;20198;-67
2022/03/21 00:51:30;;;;;;;16.30;10.63;;;;;;;-0.89;48.96;103635.38;2098714;28;20188;-67
2022/03/21 00:52:32;;;;;;;16.77;11.37;;;;;;;-0.86;49.02;103634.84;2097666;28;20274;-67
2022/03/21 00:53:33;;;;;;;18.15;11.05;;;;;;;-0.82;49.26;103636.69;2098125;28;20176;-67
2022/03/21 00:54:33;;;;;;;18.17;10.90;;;;;;;-0.77;48.89;103631.22;2098351;28;20180;-67
2022/03/21 00:55:34;;;;;;;18.03;11.10;;;;;;;-0.82;49.03;103633.97;2098759;28;20264;-67
2022/03/21 00:56:35;;;;;;;18.17;10.73;;;;;;;-0.82;48.86;103632.34;2098521;28;20313;-67
2022/03/21 00:57:36;;;;;;;18.37;10.63;;;;;;;-1.07;48.91;103597.97;2098534;28;20646;-67
2022/03/21 00:58:36;;;;;;;19.08;11.75;;;;;;;-1.33;49.76;103557.56;2098619;28;20355;-67
2022/03/21 00:59:37;;;;;;;18.03;12.53;;;;;;;-1.23;49.94;103577.34;2097921;28;20281;-67
2022/03/21 01:00:38;;;;;;;19.00;12.23;;;;;;;-1.08;50.04;103588.97;2097970;28;20185;-67
2022/03/21 01:01:38;;;;;;;18.37;11.83;;;;;;;-0.78;50.18;103633.41;2098674;28;20184;-67
2022/03/21 01:02:40;;;;;;;17.43;11.03;;;;;;;-0.68;49.61;103633.34;2098269;28;20176;-67
2022/03/21 01:03:40;;;;;;;16.52;10.55;;;;;;;-1.80;49.07;103445.81;2098263;28;20238;-67
2022/03/21 01:04:42;;;;;;;16.07;10.80;;;;;;;-0.67;48.83;103627.59;2098478;28;20242;-67
2022/03/21 01:05:43;;;;;;;16.30;10.93;;;;;;;-0.65;48.82;103626.22;2098421;28;20192;-67
2022/03/21 01:06:44;;;;;;;16.97;10.63;;;;;;;-1.36;48.95;103512.69;2098540;28;20180;-67
2022/03/21 01:07:44;;;;;;;15.82;10.57;;;;;;;-0.74;49.25;103618.94;2098499;28;20211;-67
2022/03/21 01:08:45;;;;;;;14.77;11.10;;;;;;;-0.72;49.26;103631.19;2098622;28;20237;-67
2022/03/21 01:09:45;;;;;;;15.27;10.40;;;;;;;-0.75;49.89;103634.44;2098364;28;20175;-67
2022/03/21 01:10:46;;;;;;;16.40;11.47;;;;;;;-0.93;49.71;103595.41;2098546;28;20253;-67
2022/03/21 01:11:46;;;;;;;14.20;10.73;;;;;;;-0.71;49.38;103634.72;2098460;28;20203;-67
2022/03/21 01:12:48;;;;;;;14.53;10.67;;;;;;;-0.66;49.46;103629.25;2098145;28;20173;-67
2022/03/21 01:13:50;;;;;;;21.08;11.68;;;;;;;-0.60;49.07;103628.88;2098255;28;20187;-67
2022/03/21 01:14:50;;;;;;;20.73;11.70;;;;;;;-0.55;48.74;103626.13;2098579;28;20246;-67
2022/03/21 01:15:51;;;;;;;22.30;12.53;;;;;;;-0.52;49.00;103633.75;2098317;28;20177;-67
2022/03/21 01:16:55;;;;;;;19.87;12.50;;;;;;;-0.51;49.40;103626.41;2098493;28;20202;-67
2022/03/21 01:17:57;;;;;;;22.30;11.75;;;;;;;-0.46;49.36;103626.34;2098298;28;20188;-67
2022/03/21 01:18:57;;;;;;;19.98;12.30;;;;;;;-0.46;48.81;103621.69;2098569;28;20578;-67
2022/03/21 01:19:58;;;;;;;16.87;11.27;;;;;;;-0.41;48.74;103627.09;2098332;28;20177;-67
2022/03/21 01:20:58;;;;;;;15.23;11.10;;;;;;;-0.37;48.20;103624.63;2098369;28;20785;-67
2022/03/21 01:21:59;;;;;;;19.97;12.60;;;;;;;-0.34;48.51;103622.13;2098370;28;20543;-67
2022/03/21 01:22:59;;;;;;;17.13;11.10;;;;;;;-0.33;48.35;103622.94;2098093;28;20185;-67
2022/03/21 01:24:01;;;;;;;19.43;11.13;;;;;;;-0.31;48.28;103629.72;2097925;28;20242;-67
2022/03/21 01:25:02;;;;;;;20.65;12.18;;;;;;;-0.29;48.86;103619.34;2097334;28;20173;-67
2022/03/21 01:26:03;;;;;;;19.30;12.23;;;;;;;-0.26;49.37;103624.25;2098242;28;20270;-67
2022/03/21 01:27:04;;;;;;;20.07;12.50;;;;;;;-0.24;49.77;103621.22;2098423;28;20214;-67
2022/03/21 01:28:05;;;;;;;20.30;13.20;;;;;;;-0.22;49.91;103616.28;2098143;28;20185;-67
2022/03/21 01:29:05;;;;;;;23.57;13.37;;;;;;;-0.20;50.43;103623.09;2098637;28;20188;-67
2022/03/21 01:30:08;;;;;;;19.27;12.60;;;;;;;-0.19;50.28;103619.25;2098407;28;20172;-67
2022/03/21 01:31:09;;;;;;;18.67;12.82;;;;;;;-0.18;50.12;103625.53;2098360;28;20260;-67
2022/03/21 01:32:10;;;;;;;20.23;13.00;;;;;;;-0.16;49.41;103632.31;2098420;28;20189;-67
2022/03/21 01:33:10;;;;;;;22.10;13.10;;;;;;;-0.16;50.17;103623.31;2098375;28;20580;-67
2022/03/21 01:34:11;;;;;;;22.17;13.20;;;;;;;-0.14;50.07;103626.59;2097834;28;20177;-67
2022/03/21 01:35:13;;;;;;;20.47;12.07;;;;;;;-0.15;50.20;103617.59;2098248;28;20725;-67
2022/03/21 01:36:14;;;;;;;27.17;13.55;;;;;;;-0.13;50.15;103625.47;2098258;28;20203;-67
2022/03/21 01:37:14;;;;;;;20.13;12.90;;;;;;;-0.12;50.33;103622.47;2098381;28;20181;-67
2022/03/21 01:38:15;;;;;;;23.00;12.20;;;;;;;-0.13;50.13;103622.75;2098336;28;20185;-67
2022/03/21 01:39:16;;;;;;;24.77;13.80;;;;;;;-0.12;49.65;103616.19;2098266;28;20297;-67
2022/03/21 01:40:17;;;;;;;20.03;13.00;;;;;;;-0.10;49.12;103617.53;2098250;28;20168;-67
2022/03/21 01:41:17;;;;;;;22.70;14.20;;;;;;;-0.10;49.13;103614.00;2098312;28;20260;-67
2022/03/21 01:42:18;;;;;;;26.67;13.70;;;;;;;-0.09;49.57;103619.16;2098003;28;20183;-67
2022/03/21 01:43:19;;;;;;;25.63;13.80;;;;;;;-0.07;49.52;103621.59;2098272;28;20268;-67
2022/03/21 01:44:20;;;;;;;27.90;14.53;;;;;;;-0.08;48.92;103615.34;2097866;28;20177;-67
2022/03/21 01:45:20;;;;;;;31.77;14.85;;;;;;;-0.37;49.16;103578.28;2097720;28;20250;-67
2022/03/21 01:46:21;;;;;;;40.03;15.40;;;;;;;-0.08;48.71;103612.63;2097478;28;20287;-67
2022/03/21 01:47:24;;;;;;;33.60;14.47;;;;;;;-0.65;49.55;103527.34;2098055;28;20186;-67
2022/03/21 01:48:25;;;;;;;28.85;13.95;;;;;;;-0.07;49.02;103622.41;2098027;28;20187;-67
2022/03/21 01:49:26;;;;;;;29.17;14.10;;;;;;;-0.17;48.83;103601.81;2098135;28;20637;-67
2022/03/21 01:50:27;;;;;;;29.90;15.40;;;;;;;-0.08;49.01;103617.25;2098154;28;20264;-67
2022/03/21 01:51:28;;;;;;;23.17;14.40;;;;;;;-0.11;49.23;103615.91;2098160;28;20193;-67
2022/03/21 01:52:29;;;;;;;20.25;13.23;;;;;;;-0.48;49.06;103576.75;2098163;28;20766;-67
2022/03/21 01:56:09;;;;;;;23.27;13.27;;;;;;;-0.20;49.04;103616.84;2098155;28;20161;-67
2022/03/21 01:57:11;;;;;;;24.73;13.73;;;;;;;-0.22;49.24;103624.47;2098158;28;20264;-67
2022/03/21 01:58:13;;;;;;;19.25;12.63;;;;;;;-1.27;49.39;103453.88;2098059;28;20181;-67
2022/03/21 01:59:15;;;;;;;22.48;13.32;;;;;;;-0.25;49.54;103622.34;2098218;28;20186;-67
2022/03/21 02:00:16;;;;;;;20.88;13.25;;;;;;;-0.35;48.86;103604.16;2098136;28;20662;-67
2022/03/21 02:01:16;;;;;;;21.23;13.97;;;;;;;-0.31;49.17;103618.84;2098153;28;20628;-67
2022/03/21 02:02:17;;;;;;;34.27;14.47;;;;;;;-0.39;49.49;103613.19;2097983;28;20185;-67
2022/03/21 02:03:21;;;;;;;23.50;14.43;;;;;;;-1.23;49.89;103473.16;2098151;28;20183;-67
2022/03/21 02:04:22;;;;;;;22.20;13.38;;;;;;;-2.95;49.29;103215.63;2097947;28;20185;-67
2022/03/21 02:05:22;;;;;;;25.07;13.03;;;;;;;-0.38;48.83;103623.81;2098142;28;20220;-67
2022/03/21 02:06:24;;;;;;;25.30;13.57;;;;;;;-0.41;49.03;103618.09;2098057;28;20194;-67
2022/03/21 02:07:25;;;;;;;21.88;13.15;;;;;;;-0.49;49.02;103605.13;2098109;28;20233;-67
2022/03/21 02:08:25;;;;;;;23.98;13.18;;;;;;;-0.46;48.65;103621.69;2098059;28;20234;-67
2022/03/21 02:09:27;;;;;;;21.50;13.63;;;;;;;-0.49;49.28;103613.28;2098035;28;20180;-67
2022/03/21 02:10:28;;;;;;;21.25;12.85;;;;;;;-0.53;49.09;103609.50;2097950;28;20177;-67
2022/03/21 02:11:29;;;;;;;22.80;13.70;;;;;;;-0.75;49.44;103615.38;2098076;28;20562;-67
2022/03/21 02:12:30;;;;;;;20.15;12.75;;;;;;;-1.68;49.06;103460.72;2097828;28;20177;-67
2022/03/21 02:13:32;;;;;;;23.97;15.47;;;;;;;-2.19;49.13;103369.69;2098078;28;20715;-67
2022/03/21 02:14:37;;;;;;;25.35;15.05;;;;;;;-1.42;49.30;103492.88;2097797;28;20177;-67
2022/03/21 02:15:37;;;;;;;22.92;14.15;;;;;;;-0.68;49.82;103624.06;2098141;28;20184;-67
2022/03/21 02:16:39;;;;;;;22.27;14.23;;;;;;;-0.73;50.28;103611.59;2098015;28;20172;-67
2022/03/21 02:17:45;;;;;;;26.70;14.88;;;;;;;-0.68;51.09;103611.56;2098016;28;20167;-67
2022/03/21 02:18:47;;;;;;;28.08;16.67;;;;;;;-0.66;50.41;103623.78;2098129;28;20230;-67
2022/03/21 02:19:49;;;;;;;27.33;17.77;;;;;;;-0.77;50.26;103592.25;2097987;28;20173;-67
2022/03/21 02:20:51;;;;;;;31.75;17.70;;;;;;;-0.88;49.59;103581.75;2097333;28;20222;-67
2022/03/21 02:22:15;;;;;;;27.90;17.35;;;;;;;-0.67;50.53;103611.25;2097391;28;20175;-67
2022/03/21 02:23:33;;;;;;;29.90;16.73;;;;;;;-0.67;50.08;103614.78;2090744;28;20267;-67
2022/03/21 02:24:37;;;;;;;28.30;17.88;;;;;;;-1.63;50.29;103468.00;2097465;28;20169;-67
2022/03/21 02:25:42;;;;;;;33.97;20.50;;;;;;;-0.65;49.83;103614.50;2098067;28;20686;-67
2022/03/21 02:26:45;;;;;;;36.03;20.63;;;;;;;-0.65;50.15;103617.25;2098024;28;20537;-67
2022/03/21 02:27:47;;;;;;;30.50;19.98;;;;;;;-0.68;49.95;103629.53;2097928;28;20234;-67
2022/03/21 02:28:49;;;;;;;28.85;18.98;;;;;;;-0.71;49.81;103623.81;2098037;28;20202;-67
2022/03/21 02:29:50;;;;;;;28.83;19.08;;;;;;;-0.77;50.36;103617.59;2097886;28;20649;-67
2022/03/21 02:30:53;;;;;;;31.73;19.73;;;;;;;-0.76;49.61;103615.69;2097940;28;20262;-67
2022/03/21 02:31:55;;;;;;;29.75;18.73;;;;;;;-0.74;49.88;103618.94;2097809;28;20178;-67
2022/03/21 02:32:57;;;;;;;27.63;18.05;;;;;;;-1.00;49.75;103612.06;2097843;28;20177;-67
2022/03/21 02:33:58;;;;;;;22.67;15.73;;;;;;;-0.80;50.95;103623.59;2097770;28;20230;-67
2022/03/21 02:34:59;;;;;;;25.05;16.58;;;;;;;-0.78;50.12;103617.09;2098029;28;20233;-67
2022/03/21 02:36:03;;;;;;;27.37;16.97;;;;;;;-2.06;50.04;103409.03;2097606;28;20168;-67
2022/03/21 02:37:05;;;;;;;24.48;16.73;;;;;;;-0.76;50.55;103621.16;2097999;28;20654;-67
2022/03/21 02:38:07;;;;;;;25.40;16.65;;;;;;;-0.76;50.42;103623.88;2097870;28;20707;-67
2022/03/21 02:39:07;;;;;;;26.13;16.38;;;;;;;-1.01;50.13;103575.03;2097992;28;20195;-67
2022/03/21 02:40:08;;;;;;;26.70;17.47;;;;;;;-0.78;50.29;103623.31;2097979;28;20180;-67
2022/03/21 02:41:09;;;;;;;24.38;15.82;;;;;;;-0.80;50.24;103623.59;2097905;28;20173;-67
2022/03/21 02:42:09;;;;;;;25.93;16.53;;;;;;;-0.79;49.93;103627.16;2098021;28;20175;-67
2022/03/21 02:43:10;;;;;;;27.23;16.47;;;;;;;-0.80;50.20;103620.88;2097015;28;20702;-67
2022/03/21 02:44:11;;;;;;;22.90;15.27;;;;;;;-2.04;50.12;103418.53;2097188;28;20181;-67
2022/03/21 02:45:11;;;;;;;26.70;15.97;;;;;;;-0.80;50.50;103612.69;2097896;28;20202;-67
2022/03/21 02:46:12;;;;;;;29.40;15.33;;;;;;;-0.74;49.99;103618.94;2097874;28;20691;-67
2022/03/21 02:47:13;;;;;;;29.47;15.80;;;;;;;-0.80;50.17;103604.53;2097939;28;20254;-67
2022/03/21 02:48:14;;;;;;;27.60;15.33;;;;;;;-0.68;51.79;103623.25;2097094;28;20454;-67
2022/03/21 02:49:15;;;;;;;23.65;15.10;;;;;;;-1.83;49.94;103446.38;2097281;28;20176;-67
2022/03/21 02:50:40;;;;;;;23.50;15.60;;;;;;;-0.83;49.87;103623.34;2097769;28;20168;-67
2022/03/21 02:51:42;;;;;;;26.73;15.68;;;;;;;-0.82;50.91;103617.63;2094956;28;20198;-67
2022/03/21 02:52:46;;;;;;;26.50;15.57;;;;;;;-0.80;50.73;103620.09;2097064;28;20242;-67
2022/03/21 02:53:49;;;;;;;24.65;15.73;;;;;;;-0.90;51.17;103628.31;2097162;28;20564;-67
2022/03/21 02:54:49;;;;;;;29.95;15.95;;;;;;;-0.90;51.15;103631.03;2097858;28;20177;-67
2022/03/21 02:55:54;;;;;;;26.03;15.13;;;;;;;-0.93;50.96;103620.72;2097880;28;20180;-67
2022/03/21 02:56:56;;;;;;;22.08;14.88;;;;;;;-1.63;50.52;103543.03;2098123;28;20231;-67
2022/03/21 02:57:56;;;;;;;24.15;14.95;;;;;;;-2.53;50.48;103360.63;2097676;28;20176;-67
2022/03/21 02:58:57;;;;;;;27.83;16.27;;;;;;;-0.93;50.34;103618.81;2097946;28;20254;-67
2022/03/21 02:59:58;;;;;;;33.70;15.87;;;;;;;-0.94;50.82;103624.53;2097849;28;20188;-67
2022/03/21 03:01:13;;;;;;;21.17;14.27;;;;;;;-0.95;50.81;103622.91;2097971;28;20164;-67
2022/03/21 03:02:13;;;;;;;26.38;15.63;;;;;;;-0.94;50.77;103626.47;2097891;28;20625;-67
2022/03/21 03:03:14;;;;;;;37.00;17.03;;;;;;;-1.02;50.89;103614.25;2097817;28;20596;-67
2022/03/21 03:04:15;;;;;;;38.80;17.27;;;;;;;-0.98;50.33;103612.56;2097492;28;20172;-67
2022/03/21 03:05:16;;;;;;;43.80;16.67;;;;;;;-1.06;50.35;103597.66;2097137;28;20168;-67
2022/03/21 03:06:16;;;;;;;39.13;16.07;;;;;;;-0.91;50.91;103627.50;2097029;28;20207;-67
2022/03/21 03:07:17;;;;;;;24.03;14.23;;;;;;;-0.91;51.52;103629.41;2097168;28;20275;-67
2022/03/21 03:08:18;;;;;;;39.07;17.00;;;;;;;-0.92;51.76;103628.59;2097194;28;20185;-67
2022/03/21 03:09:19;;;;;;;41.05;16.30;;;;;;;-0.88;51.74;103628.03;2097108;28;20218;-67
2022/03/21 03:10:19;;;;;;;41.33;16.17;;;;;;;-0.97;51.29;103612.28;2097198;28;20185;-67
2022/03/21 03:11:20;;;;;;;42.60;16.57;;;;;;;-0.87;50.77;103635.94;2097796;28;20175;-67
2022/03/21 03:12:21;;;;;;;42.07;16.27;;;;;;;-1.83;52.12;103479.00;2097603;28;20693;-67
2022/03/21 03:13:22;;;;;;;39.20;17.17;;;;;;;-0.85;51.78;103628.28;2097811;28;20230;-67
2022/03/21 03:14:22;;;;;;;41.33;16.45;;;;;;;-0.88;52.27;103628.84;2097575;28;20605;-67
2022/03/21 03:15:23;;;;;;;44.93;16.27;;;;;;;-0.85;51.26;103647.34;2097691;28;20180;-67
2022/03/21 03:16:23;;;;;;;42.27;16.73;;;;;;;-0.85;50.71;103634.53;2097703;28;20169;-67
2022/03/21 03:17:24;;;;;;;42.93;15.93;;;;;;;-0.84;50.52;103640.78;2097841;28;20176;-67
2022/03/21 03:18:25;;;;;;;38.70;16.27;;;;;;;-0.85;51.35;103631.00;2097797;28;20217;-67
2022/03/21 03:19:25;;;;;;;40.10;16.07;;;;;;;-0.87;51.29;103627.78;2097661;28;20249;-67
2022/03/21 03:20:26;;;;;;;38.17;16.70;;;;;;;-1.00;50.95;103606.59;2097697;28;20210;-67
2022/03/21 03:21:28;;;;;;;38.43;16.60;;;;;;;-0.88;49.88;103626.94;2097685;28;20235;-67
2022/03/21 03:22:30;;;;;;;36.50;15.43;;;;;;;-1.14;49.93;103607.53;2097554;28;20172;-67
2022/03/21 03:23:32;;;;;;;31.00;16.10;;;;;;;-0.97;49.51;103625.13;2097794;28;20658;-67
2022/03/21 03:24:33;;;;;;;36.13;16.05;;;;;;;-1.10;50.21;103609.41;2097479;28;20176;-67
2022/03/21 03:25:35;;;;;;;38.72;16.30;;;;;;;-1.02;52.27;103636.03;2097755;28;20267;-67
2022/03/21 03:26:36;;;;;;;37.00;17.05;;;;;;;-1.08;52.15;103609.13;2097599;28;20216;-67
2022/03/21 03:27:36;;;;;;;34.87;16.07;;;;;;;-1.01;52.35;103630.28;2097670;28;20263;-67
2022/03/21 03:28:38;;;;;;;29.37;15.83;;;;;;;-1.02;51.71;103621.59;2097615;28;20178;-67
2022/03/21 03:29:38;;;;;;;26.13;15.63;;;;;;;-1.06;51.68;103627.59;2097713;28;20175;-67
2022/03/21 03:30:41;;;;;;;29.43;16.03;;;;;;;-1.13;51.53;103621.66;2097710;28;20215;-67
2022/03/21 03:31:42;;;;;;;29.08;15.20;;;;;;;-1.13;51.24;103622.75;2097638;28;20273;-67
2022/03/21 03:32:44;;;;;;;29.63;16.15;;;;;;;-1.16;51.48;103624.94;2097663;28;20175;-67
2022/03/21 03:33:46;;;;;;;29.00;15.85;;;;;;;-1.17;52.37;103623.31;2097525;28;20673;-67
2022/03/21 03:34:47;;;;;;;29.67;16.67;;;;;;;-1.63;52.48;103555.84;2097648;28;20179;-67
2022/03/21 03:35:48;;;;;;;27.57;16.97;;;;;;;-1.21;53.92;103621.44;2097746;28;20535;-67
2022/03/21 03:36:49;;;;;;;35.50;16.95;;;;;;;-1.16;53.45;103629.56;2097704;28;20179;-67
2022/03/21 03:37:50;;;;;;;26.87;16.73;;;;;;;-1.43;54.13;103576.69;2097487;28;20177;-67
2022/03/21 03:38:53;;;;;;;35.90;17.63;;;;;;;-1.12;54.82;103626.00;2097755;28;20245;-67
2022/03/21 03:39:54;;;;;;;33.63;16.13;;;;;;;-1.19;53.41;103611.06;2097629;28;20203;-67
2022/03/21 03:40:54;;;;;;;34.70;15.87;;;;;;;-1.11;52.67;103627.63;2097646;28;20180;-67
2022/03/21 03:41:55;;;;;;;44.10;17.37;;;;;;;-1.08;54.02;103628.97;2097550;28;20165;-67
2022/03/21 03:42:56;;;;;;;62.63;19.17;;;;;;;-1.92;52.76;103491.53;2097411;28;20184;-67
2022/03/21 03:43:57;;;;;;;48.57;18.80;;;;;;;-1.12;52.41;103603.44;2097365;28;20326;-67
2022/03/21 03:44:57;;;;;;;45.13;17.47;;;;;;;-1.04;52.32;103616.44;2097837;28;20649;-67
2022/03/21 03:45:59;;;;;;;49.80;18.43;;;;;;;-1.58;52.27;103532.13;2097352;28;20170;-67
2022/03/21 03:47:00;;;;;;;45.00;16.85;;;;;;;-2.05;52.36;103443.25;2097650;28;20586;-67
2022/03/21 03:48:02;;;;;;;34.70;16.40;;;;;;;-1.03;51.24;103618.06;2097600;28;20188;-67
2022/03/21 03:49:02;;;;;;;34.38;16.63;;;;;;;-1.59;51.51;103540.56;2099154;28;20260;-67
2022/03/21 03:50:03;;;;;;;32.70;16.70;;;;;;;-1.18;52.86;103599.09;2098918;28;20186;-67
2022/03/21 03:51:04;;;;;;;31.37;16.43;;;;;;;-1.27;52.81;103590.72;2099299;28;20175;-67
2022/03/21 03:52:05;;;;;;;30.00;16.17;;;;;;;-2.11;52.22;103460.69;2099122;28;20693;-67
2022/03/21 03:53:05;;;;;;;27.27;16.87;;;;;;;-1.60;52.58;103536.22;2098353;28;20676;-67
2022/03/21 03:54:06;;;;;;;26.67;16.07;;;;;;;-1.12;52.15;103606.16;2098436;28;20195;-67
2022/03/21 03:55:07;;;;;;;24.60;15.50;;;;;;;-2.27;52.74;103443.63;2099083;28;20200;-67
2022/03/21 03:56:08;;;;;;;27.15;15.20;;;;;;;-1.06;52.88;103610.47;2099041;28;20200;-67
2022/03/21 03:57:11;;;;;;;33.88;16.92;;;;;;;-1.13;52.18;103611.88;2099205;28;20315;-67
2022/03/21 03:58:11;;;;;;;31.65;16.27;;;;;;;-1.28;52.12;103591.03;2099377;28;20184;-67
2022/03/21 03:59:14;;;;;;;28.20;15.93;;;;;;;-1.20;52.00;103609.47;2099072;28;20207;-67
2022/03/21 04:00:16;;;;;;;25.00;16.13;;;;;;;-1.19;50.77;103611.06;2099116;28;20165;-67
2022/03/21 04:01:17;;;;;;;27.25;16.27;;;;;;;-1.32;50.69;103584.50;2099101;28;20180;-67
2022/03/21 04:02:17;;;;;;;26.60;16.70;;;;;;;-1.28;50.74;103617.41;2098864;28;20646;-67
2022/03/21 04:04:37;;;;;;;29.77;16.30;;;;;;;-1.28;52.31;103631.84;2098771;28;20156;-67
2022/03/21 04:05:37;;;;;;;23.43;15.67;;;;;;;-1.42;51.18;103602.78;2099117;28;20267;-67
2022/03/21 04:06:38;;;;;;;24.97;15.00;;;;;;;-1.38;50.55;103618.28;2099020;28;20199;-67
2022/03/21 04:07:38;;;;;;;24.00;14.67;;;;;;;-1.43;51.07;103620.19;2099111;28;20658;-67
2022/03/21 04:08:39;;;;;;;23.20;14.90;;;;;;;-1.47;51.32;103620.75;2099074;28;20646;-67
2022/03/21 04:09:40;;;;;;;24.70;14.97;;;;;;;-3.37;51.85;103310.16;2098997;28;20681;-67
2022/03/21 04:10:40;;;;;;;21.37;14.30;;;;;;;-1.58;51.37;103610.22;2099087;28;20183;-67
2022/03/21 04:11:41;;;;;;;25.27;14.13;;;;;;;-1.45;50.90;103616.97;2098934;28;20199;-67
2022/03/21 04:12:43;;;;;;;30.97;15.17;;;;;;;-1.47;50.93;103618.03;2098110;28;20687;-67
2022/03/21 04:13:44;;;;;;;35.08;14.48;;;;;;;-1.57;51.30;103609.91;2098259;28;20164;-67
2022/03/21 04:14:47;;;;;;;33.38;13.88;;;;;;;-1.61;51.93;103616.19;2090804;28;20176;-67
2022/03/21 04:15:48;;;;;;;26.00;13.65;;;;;;;-1.64;52.23;103616.75;2090594;28;20310;-67
2022/03/21 04:16:49;;;;;;;22.33;13.37;;;;;;;-2.41;51.72;103499.59;2090741;28;20724;-67
2022/03/21 04:17:50;;;;;;;26.63;12.70;;;;;;;-1.79;52.28;103616.81;2090838;28;20222;-67
2022/03/21 04:18:50;;;;;;;22.40;11.75;;;;;;;-1.80;52.32;103617.09;2090092;28;20245;-67
2022/03/21 04:19:51;;;;;;;23.33;12.50;;;;;;;-2.06;52.76;103574.78;2091899;28;20180;-67
2022/03/21 04:20:55;;;;;;;22.07;12.03;;;;;;;-1.85;52.86;103611.69;2098861;28;20608;-67
2022/03/21 04:21:56;;;;;;;22.38;11.85;;;;;;;-1.99;52.10;103584.28;2098922;28;20652;-67
2022/03/21 04:22:57;;;;;;;31.50;12.70;;;;;;;-1.81;51.73;103608.13;2098730;28;20676;-67
2022/03/21 04:23:58;;;;;;;21.08;11.40;;;;;;;-1.79;51.65;103613.28;2098749;28;20164;-67
2022/03/21 04:24:58;;;;;;;36.95;13.55;;;;;;;-1.79;52.01;103610.56;2098924;28;20649;-67
2022/03/21 04:25:59;;;;;;;26.43;12.53;;;;;;;-1.77;51.41;103606.47;2098131;28;20544;-67
2022/03/21 04:27:00;;;;;;;28.53;12.20;;;;;;;-1.92;51.71;103578.53;2098381;28;20233;-67
2022/03/21 04:28:07;;;;;;;26.50;12.03;;;;;;;-1.78;51.45;103610.28;2098799;28;20180;-67
2022/03/21 04:29:07;;;;;;;23.80;11.07;;;;;;;-1.79;51.44;103607.84;2099099;28;20214;-67
2022/03/21 04:30:08;;;;;;;21.60;11.80;;;;;;;-1.83;51.09;103599.44;2098064;28;20295;-67
2022/03/21 04:31:09;;;;;;;24.10;11.43;;;;;;;-1.88;51.65;103599.44;2098220;28;20241;-67
2022/03/21 04:32:09;;;;;;;18.47;10.40;;;;;;;-2.02;51.90;103582.09;2098876;28;20173;-67
2022/03/21 04:33:12;;;;;;;17.50;10.47;;;;;;;-2.87;51.19;103453.84;2098763;28;20214;-67
2022/03/21 04:34:12;;;;;;;21.23;9.93;;;;;;;-1.90;51.19;103595.38;2098629;28;20173;-67
2022/03/21 04:35:13;;;;;;;14.70;9.80;;;;;;;-1.78;51.03;103602.13;2098804;28;20183;-67
2022/03/21 04:36:14;;;;;;;14.98;9.90;;;;;;;-1.77;51.34;103603.75;2098730;28;20178;-67
2022/03/21 04:37:15;;;;;;;21.00;10.00;;;;;;;-1.79;51.47;103603.22;2098290;28;20664;-67
2022/03/21 04:38:17;;;;;;;17.47;10.37;;;;;;;-1.77;51.15;103597.50;2098202;28;20651;-67
2022/03/21 04:39:17;;;;;;;14.73;10.23;;;;;;;-1.77;50.96;103600.22;2098899;28;20198;-67
2022/03/21 04:40:18;;;;;;;14.63;10.03;;;;;;;-1.87;51.11;103584.75;2098697;28;20172;-67
2022/03/21 04:41:19;;;;;;;14.00;9.20;;;;;;;-1.79;51.24;103602.41;2098865;28;20634;-67
2022/03/21 04:42:20;;;;;;;15.07;9.50;;;;;;;-2.20;51.47;103538.41;2098592;28;20199;-67
2022/03/21 04:43:21;;;;;;;14.68;9.68;;;;;;;-1.80;51.21;103609.75;2098818;28;20266;-67